sensor_id;sensor_type;location;lat;lon;timestamp;pressure;altitude;pressure_sealevel;temperature;humidity
9738;BME280;4908;47.446;13.900;2024-01-25T00:01:21;93544.03;;;8.34;67.50
9738;BME280;4908;47.446;13.900;2024-01-25T00:03:49;93567.28;;;8.34;68.30
9738;BME280;4908;47.446;13.900;2024-01-25T00:06:16;93579.34;;;8.28;67.75
9738;BME280;4908;47.446;13.900;2024-01-25T00:08:43;93582.03;;;8.28;66.60
9738;BME280;4908;47.446;13.900;2024-01-25T00:11:10;93576.97;;;8.42;67.12
9738;BME280;4908;47.446;13.900;2024-01-25T00:13:37;93582.19;;;8.35;64.47
9738;BME280;4908;47.446;13.900;2024-01-25T00:16:05;93617.13;;;8.30;67.16
9738;BME280;4908;47.446;13.900;2024-01-25T00:18:32;93591.28;;;8.34;68.14
9738;BME280;4908;47.446;13.900;2024-01-25T00:21:00;93580.88;;;8.29;68.40
9738;BME280;4908;47.446;13.900;2024-01-25T00:23:27;93570.03;;;8.22;73.51
9738;BME280;4908;47.446;13.900;2024-01-25T00:25:54;93584.84;;;8.19;66.73
9738;BME280;4908;47.446;13.900;2024-01-25T00:28:24;93575.19;;;8.30;71.31
9738;BME280;4908;47.446;13.900;2024-01-25T00:30:51;93569.59;;;8.20;72.50
9738;BME280;4908;47.446;13.900;2024-01-25T00:33:18;93558.94;;;8.20;69.72
9738;BME280;4908;47.446;13.900;2024-01-25T00:35:45;93530.19;;;8.13;69.87
9738;BME280;4908;47.446;13.900;2024-01-25T00:38:15;93539.19;;;8.24;69.72
9738;BME280;4908;47.446;13.900;2024-01-25T00:40:43;93554.28;;;8.16;66.98
9738;BME280;4908;47.446;13.900;2024-01-25T00:43:10;93559.47;;;8.09;80.59
9738;BME280;4908;47.446;13.900;2024-01-25T00:45:38;93557.38;;;8.03;78.67
9738;BME280;4908;47.446;13.900;2024-01-25T00:48:06;93540.09;;;7.97;75.60
9738;BME280;4908;47.446;13.900;2024-01-25T00:50:33;93529.00;;;7.95;91.39
9738;BME280;4908;47.446;13.900;2024-01-25T00:53:00;93553.34;;;7.78;87.78
9738;BME280;4908;47.446;13.900;2024-01-25T00:55:30;93560.50;;;7.89;77.17
9738;BME280;4908;47.446;13.900;2024-01-25T00:57:57;93529.88;;;7.83;92.20
9738;BME280;4908;47.446;13.900;2024-01-25T01:00:26;93560.84;;;7.72;90.66
9738;BME280;4908;47.446;13.900;2024-01-25T01:02:54;93551.63;;;7.70;93.23
9738;BME280;4908;47.446;13.900;2024-01-25T01:05:22;93569.25;;;7.74;79.83
9738;BME280;4908;47.446;13.900;2024-01-25T01:07:50;93551.19;;;7.83;85.87
9738;BME280;4908;47.446;13.900;2024-01-25T01:10:17;93541.75;;;7.70;95.21
9738;BME280;4908;47.446;13.900;2024-01-25T01:12:46;93538.72;;;7.72;87.17
9738;BME280;4908;47.446;13.900;2024-01-25T01:15:13;93554.13;;;7.78;80.14
9738;BME280;4908;47.446;13.900;2024-01-25T01:17:40;93552.06;;;7.87;82.31
9738;BME280;4908;47.446;13.900;2024-01-25T01:20:08;93566.75;;;7.81;78.76
9738;BME280;4908;47.446;13.900;2024-01-25T01:22:36;93563.59;;;7.91;73.44
9738;BME280;4908;47.446;13.900;2024-01-25T01:25:03;93578.72;;;7.87;73.87
9738;BME280;4908;47.446;13.900;2024-01-25T01:27:30;93575.13;;;7.80;77.38
9738;BME280;4908;47.446;13.900;2024-01-25T01:29:59;93584.31;;;7.82;81.19
9738;BME280;4908;47.446;13.900;2024-01-25T01:32:26;93587.00;;;7.82;83.84
9738;BME280;4908;47.446;13.900;2024-01-25T01:34:54;93598.59;;;7.74;87.59
9738;BME280;4908;47.446;13.900;2024-01-25T01:37:21;93587.06;;;7.70;86.45
9738;BME280;4908;47.446;13.900;2024-01-25T01:39:48;93594.63;;;7.68;89.00
9738;BME280;4908;47.446;13.900;2024-01-25T01:42:15;93593.59;;;7.57;87.63
9738;BME280;4908;47.446;13.900;2024-01-25T01:44:42;93600.38;;;7.55;93.88
9738;BME280;4908;47.446;13.900;2024-01-25T01:47:11;93599.47;;;7.35;93.66
9738;BME280;4908;47.446;13.900;2024-01-25T01:49:38;93593.72;;;7.49;87.59
9738;BME280;4908;47.446;13.900;2024-01-25T01:52:06;93580.31;;;7.45;89.63
9738;BME280;4908;47.446;13.900;2024-01-25T01:54:34;93600.50;;;7.46;80.32
9738;BME280;4908;47.446;13.900;2024-01-25T01:57:01;93569.06;;;7.36;82.19
9738;BME280;4908;47.446;13.900;2024-01-25T01:59:29;93588.13;;;7.38;85.50
9738;BME280;4908;47.446;13.900;2024-01-25T02:01:57;93581.25;;;7.37;81.36
9738;BME280;4908;47.446;13.900;2024-01-25T02:04:25;93600.16;;;7.32;82.77
9738;BME280;4908;47.446;13.900;2024-01-25T02:06:53;93589.69;;;7.11;98.67
9738;BME280;4908;47.446;13.900;2024-01-25T02:09:21;93584.16;;;7.04;86.74
9738;BME280;4908;47.446;13.900;2024-01-25T02:11:59;93611.31;;;7.10;88.16
9738;BME280;4908;47.446;13.900;2024-01-25T02:14:26;93570.59;;;6.82;100.00
9738;BME280;4908;47.446;13.900;2024-01-25T02:16:53;93568.34;;;6.56;100.00
9738;BME280;4908;47.446;13.900;2024-01-25T02:19:20;93588.50;;;6.57;100.00
9738;BME280;4908;47.446;13.900;2024-01-25T02:21:49;93598.84;;;6.47;100.00
9738;BME280;4908;47.446;13.900;2024-01-25T02:24:19;93566.38;;;6.41;100.00
9738;BME280;4908;47.446;13.900;2024-01-25T02:26:47;93614.94;;;6.14;100.00
9738;BME280;4908;47.446;13.900;2024-01-25T02:29:14;93583.56;;;5.95;100.00
9738;BME280;4908;47.446;13.900;2024-01-25T02:31:41;93604.38;;;5.93;100.00
9738;BME280;4908;47.446;13.900;2024-01-25T02:34:08;93584.19;;;5.80;100.00
9738;BME280;4908;47.446;13.900;2024-01-25T02:36:35;93585.50;;;5.74;100.00
9738;BME280;4908;47.446;13.900;2024-01-25T02:39:03;93602.00;;;5.68;100.00
9738;BME280;4908;47.446;13.900;2024-01-25T02:41:32;93596.34;;;5.57;100.00
9738;BME280;4908;47.446;13.900;2024-01-25T02:44:00;93615.34;;;5.47;100.00
9738;BME280;4908;47.446;13.900;2024-01-25T02:46:27;93592.53;;;5.34;100.00
9738;BME280;4908;47.446;13.900;2024-01-25T02:48:54;93597.00;;;5.21;100.00
9738;BME280;4908;47.446;13.900;2024-01-25T02:51:21;93608.13;;;5.03;100.00
9738;BME280;4908;47.446;13.900;2024-01-25T02:53:49;93617.31;;;4.85;100.00
9738;BME280;4908;47.446;13.900;2024-01-25T02:56:16;93602.31;;;4.68;100.00
9738;BME280;4908;47.446;13.900;2024-01-25T02:58:44;93611.88;;;4.61;100.00
9738;BME280;4908;47.446;13.900;2024-01-25T03:01:11;93607.66;;;4.60;100.00
9738;BME280;4908;47.446;13.900;2024-01-25T03:03:39;93608.00;;;4.58;100.00
9738;BME280;4908;47.446;13.900;2024-01-25T03:06:06;93605.22;;;4.54;100.00
9738;BME280;4908;47.446;13.900;2024-01-25T03:08:34;93581.97;;;4.51;100.00
9738;BME280;4908;47.446;13.900;2024-01-25T03:11:02;93599.13;;;4.54;100.00
9738;BME280;4908;47.446;13.900;2024-01-25T03:13:30;93564.53;;;4.50;100.00
9738;BME280;4908;47.446;13.900;2024-01-25T03:15:59;93591.97;;;4.54;100.00
9738;BME280;4908;47.446;13.900;2024-01-25T03:18:26;93583.28;;;4.45;100.00
9738;BME280;4908;47.446;13.900;2024-01-25T03:20:53;93557.28;;;4.39;100.00
9738;BME280;4908;47.446;13.900;2024-01-25T03:23:20;93569.31;;;4.36;100.00
9738;BME280;4908;47.446;13.900;2024-01-25T03:25:48;93572.94;;;4.52;100.00
9738;BME280;4908;47.446;13.900;2024-01-25T03:28:15;93583.03;;;4.38;100.00
9738;BME280;4908;47.446;13.900;2024-01-25T03:30:44;93568.78;;;4.22;100.00
9738;BME280;4908;47.446;13.900;2024-01-25T03:33:12;93568.84;;;4.14;100.00
9738;BME280;4908;47.446;13.900;2024-01-25T03:35:40;93557.00;;;4.11;100.00
9738;BME280;4908;47.446;13.900;2024-01-25T03:38:07;93572.59;;;4.04;100.00
9738;BME280;4908;47.446;13.900;2024-01-25T03:40:34;93560.59;;;4.07;100.00
9738;BME280;4908;47.446;13.900;2024-01-25T03:43:01;93577.41;;;3.82;100.00
9738;BME280;4908;47.446;13.900;2024-01-25T03:45:28;93597.09;;;3.72;100.00
9738;BME280;4908;47.446;13.900;2024-01-25T03:47:55;93561.94;;;3.63;100.00
9738;BME280;4908;47.446;13.900;2024-01-25T03:50:24;93571.75;;;3.54;100.00
9738;BME280;4908;47.446;13.900;2024-01-25T03:52:51;93558.97;;;3.56;100.00
9738;BME280;4908;47.446;13.900;2024-01-25T03:55:18;93545.75;;;3.56;100.00
9738;BME280;4908;47.446;13.900;2024-01-25T03:57:46;93548.75;;;3.75;100.00
9738;BME280;4908;47.446;13.900;2024-01-25T04:00:13;93579.66;;;3.71;100.00
9738;BME280;4908;47.446;13.900;2024-01-25T04:02:41;93567.13;;;3.80;100.00
9738;BME280;4908;47.446;13.900;2024-01-25T04:05:08;93574.34;;;3.71;100.00
9738;BME280;4908;47.446;13.900;2024-01-25T04:07:37;93583.38;;;3.70;100.00
9738;BME280;4908;47.446;13.900;2024-01-25T04:10:04;93577.16;;;3.66;100.00
9738;BME280;4908;47.446;13.900;2024-01-25T04:12:32;93571.88;;;3.66;100.00
9738;BME280;4908;47.446;13.900;2024-01-25T04:14:59;93563.19;;;3.57;100.00
9738;BME280;4908;47.446;13.900;2024-01-25T04:17:26;93561.63;;;3.56;100.00
9738;BME280;4908;47.446;13.900;2024-01-25T04:19:54;93584.06;;;3.50;100.00
9738;BME280;4908;47.446;13.900;2024-01-25T04:22:21;93580.69;;;3.41;100.00
9738;BME280;4908;47.446;13.900;2024-01-25T04:24:49;93577.28;;;3.32;100.00
9738;BME280;4908;47.446;13.900;2024-01-25T04:27:16;93581.34;;;3.38;100.00
9738;BME280;4908;47.446;13.900;2024-01-25T04:29:44;93570.75;;;3.38;100.00
9738;BME280;4908;47.446;13.900;2024-01-25T04:32:12;93551.88;;;3.39;100.00
9738;BME280;4908;47.446;13.900;2024-01-25T04:34:39;93567.25;;;3.46;100.00
9738;BME280;4908;47.446;13.900;2024-01-25T04:37:06;93558.34;;;3.59;100.00
9738;BME280;4908;47.446;13.900;2024-01-25T04:39:33;93561.34;;;3.57;100.00
9738;BME280;4908;47.446;13.900;2024-01-25T04:42:02;93552.31;;;3.50;100.00
9738;BME280;4908;47.446;13.900;2024-01-25T04:44:29;93570.41;;;3.39;100.00
9738;BME280;4908;47.446;13.900;2024-01-25T04:46:56;93559.84;;;3.31;100.00
9738;BME280;4908;47.446;13.900;2024-01-25T04:49:24;93553.47;;;3.32;100.00
9738;BME280;4908;47.446;13.900;2024-01-25T04:51:51;93580.28;;;3.22;100.00
9738;BME280;4908;47.446;13.900;2024-01-25T04:54:18;93556.47;;;3.13;100.00
9738;BME280;4908;47.446;13.900;2024-01-25T04:56:46;93538.59;;;3.10;100.00
9738;BME280;4908;47.446;13.900;2024-01-25T04:59:14;93536.88;;;3.06;100.00
9738;BME280;4908;47.446;13.900;2024-01-25T05:01:41;93533.16;;;3.07;100.00
9738;BME280;4908;47.446;13.900;2024-01-25T05:04:09;93529.72;;;3.06;100.00
9738;BME280;4908;47.446;13.900;2024-01-25T05:06:36;93537.66;;;3.06;100.00
9738;BME280;4908;47.446;13.900;2024-01-25T05:09:03;93539.00;;;3.21;100.00
9738;BME280;4908;47.446;13.900;2024-01-25T05:11:34;93542.25;;;3.35;100.00
9738;BME280;4908;47.446;13.900;2024-01-25T05:14:04;93551.75;;;3.36;100.00
9738;BME280;4908;47.446;13.900;2024-01-25T05:16:32;93559.66;;;3.44;100.00
9738;BME280;4908;47.446;13.900;2024-01-25T05:19:00;93534.91;;;3.40;100.00
9738;BME280;4908;47.446;13.900;2024-01-25T05:21:28;93546.75;;;3.34;100.00
9738;BME280;4908;47.446;13.900;2024-01-25T05:23:55;93553.16;;;3.33;100.00
9738;BME280;4908;47.446;13.900;2024-01-25T05:26:22;93546.28;;;3.32;100.00
9738;BME280;4908;47.446;13.900;2024-01-25T05:28:49;93543.19;;;3.30;100.00
9738;BME280;4908;47.446;13.900;2024-01-25T05:31:16;93548.81;;;3.29;100.00
9738;BME280;4908;47.446;13.900;2024-01-25T05:33:45;93542.28;;;3.26;100.00
9738;BME280;4908;47.446;13.900;2024-01-25T05:36:12;93543.03;;;3.27;100.00
9738;BME280;4908;47.446;13.900;2024-01-25T05:38:39;93557.38;;;3.26;100.00
9738;BME280;4908;47.446;13.900;2024-01-25T05:41:06;93555.34;;;3.31;100.00
9738;BME280;4908;47.446;13.900;2024-01-25T05:43:33;93542.44;;;3.30;100.00
9738;BME280;4908;47.446;13.900;2024-01-25T05:46:00;93548.03;;;3.28;100.00
9738;BME280;4908;47.446;13.900;2024-01-25T05:48:27;93557.25;;;3.22;100.00
9738;BME280;4908;47.446;13.900;2024-01-25T05:50:55;93585.09;;;3.20;100.00
9738;BME280;4908;47.446;13.900;2024-01-25T05:53:22;93561.75;;;3.22;100.00
9738;BME280;4908;47.446;13.900;2024-01-25T05:55:49;93556.75;;;3.29;100.00
9738;BME280;4908;47.446;13.900;2024-01-25T05:58:16;93553.34;;;3.20;100.00
9738;BME280;4908;47.446;13.900;2024-01-25T06:00:43;93572.66;;;3.20;100.00
9738;BME280;4908;47.446;13.900;2024-01-25T06:03:10;93592.28;;;3.11;100.00
9738;BME280;4908;47.446;13.900;2024-01-25T06:05:37;93605.66;;;3.06;100.00
9738;BME280;4908;47.446;13.900;2024-01-25T06:08:06;93591.97;;;3.04;100.00
9738;BME280;4908;47.446;13.900;2024-01-25T06:10:33;93596.94;;;3.05;100.00
9738;BME280;4908;47.446;13.900;2024-01-25T06:13:00;93599.75;;;3.09;100.00
9738;BME280;4908;47.446;13.900;2024-01-25T06:15:27;93592.63;;;3.01;100.00
9738;BME280;4908;47.446;13.900;2024-01-25T06:17:54;93600.41;;;2.89;100.00
9738;BME280;4908;47.446;13.900;2024-01-25T06:20:21;93595.28;;;2.75;100.00
9738;BME280;4908;47.446;13.900;2024-01-25T06:22:48;93630.56;;;2.88;100.00
9738;BME280;4908;47.446;13.900;2024-01-25T06:25:17;93605.69;;;2.89;100.00
9738;BME280;4908;47.446;13.900;2024-01-25T06:27:44;93606.00;;;2.79;100.00
9738;BME280;4908;47.446;13.900;2024-01-25T06:30:11;93605.69;;;2.80;100.00
9738;BME280;4908;47.446;13.900;2024-01-25T06:32:39;93603.81;;;2.81;100.00
9738;BME280;4908;47.446;13.900;2024-01-25T06:35:07;93597.28;;;2.87;100.00
9738;BME280;4908;47.446;13.900;2024-01-25T06:37:35;93600.88;;;2.91;100.00
9738;BME280;4908;47.446;13.900;2024-01-25T06:40:02;93614.69;;;2.88;100.00
9738;BME280;4908;47.446;13.900;2024-01-25T06:42:31;93606.94;;;2.83;100.00
9738;BME280;4908;47.446;13.900;2024-01-25T06:44:58;93624.50;;;2.96;100.00
9738;BME280;4908;47.446;13.900;2024-01-25T06:47:25;93603.22;;;2.84;100.00
9738;BME280;4908;47.446;13.900;2024-01-25T06:49:52;93618.28;;;2.92;100.00
9738;BME280;4908;47.446;13.900;2024-01-25T06:52:19;93622.81;;;2.83;100.00
9738;BME280;4908;47.446;13.900;2024-01-25T06:54:46;93629.19;;;2.82;100.00
9738;BME280;4908;47.446;13.900;2024-01-25T06:57:12;93628.72;;;2.80;100.00
9738;BME280;4908;47.446;13.900;2024-01-25T06:59:42;93642.41;;;2.82;100.00
9738;BME280;4908;47.446;13.900;2024-01-25T07:02:09;93652.81;;;2.61;100.00
9738;BME280;4908;47.446;13.900;2024-01-25T07:04:37;93626.84;;;2.54;100.00
9738;BME280;4908;47.446;13.900;2024-01-25T07:07:06;93620.47;;;2.64;100.00
9738;BME280;4908;47.446;13.900;2024-01-25T07:09:33;93602.91;;;2.59;100.00
9738;BME280;4908;47.446;13.900;2024-01-25T07:12:00;93597.78;;;2.71;100.00
9738;BME280;4908;47.446;13.900;2024-01-25T07:14:27;93622.81;;;2.83;100.00
9738;BME280;4908;47.446;13.900;2024-01-25T07:16:55;93639.47;;;2.66;100.00
9738;BME280;4908;47.446;13.900;2024-01-25T07:19:22;93617.53;;;2.65;100.00
9738;BME280;4908;47.446;13.900;2024-01-25T07:21:49;93637.09;;;2.64;100.00
9738;BME280;4908;47.446;13.900;2024-01-25T07:24:16;93654.66;;;2.60;100.00
9738;BME280;4908;47.446;13.900;2024-01-25T07:26:43;93655.94;;;2.63;100.00
9738;BME280;4908;47.446;13.900;2024-01-25T07:29:11;93669.94;;;2.72;100.00
9738;BME280;4908;47.446;13.900;2024-01-25T07:31:38;93682.53;;;2.66;100.00
9738;BME280;4908;47.446;13.900;2024-01-25T07:34:06;93660.75;;;2.69;100.00
9738;BME280;4908;47.446;13.900;2024-01-25T07:36:33;93650.66;;;2.97;100.00
9738;BME280;4908;47.446;13.900;2024-01-25T07:39:00;93652.03;;;3.12;100.00
9738;BME280;4908;47.446;13.900;2024-01-25T07:41:28;93653.16;;;3.11;100.00
9738;BME280;4908;47.446;13.900;2024-01-25T07:43:55;93641.47;;;3.12;100.00
9738;BME280;4908;47.446;13.900;2024-01-25T07:46:22;93655.47;;;3.04;100.00
9738;BME280;4908;47.446;13.900;2024-01-25T07:48:49;93628.22;;;3.20;100.00
9738;BME280;4908;47.446;13.900;2024-01-25T07:51:18;93629.44;;;3.40;100.00
9738;BME280;4908;47.446;13.900;2024-01-25T07:53:45;93632.97;;;3.61;100.00
9738;BME280;4908;47.446;13.900;2024-01-25T07:56:13;93621.88;;;3.67;100.00
9738;BME280;4908;47.446;13.900;2024-01-25T07:58:40;93617.63;;;3.75;100.00
9738;BME280;4908;47.446;13.900;2024-01-25T08:01:07;93614.31;;;3.87;100.00
9738;BME280;4908;47.446;13.900;2024-01-25T08:03:34;93652.19;;;3.87;100.00
9738;BME280;4908;47.446;13.900;2024-01-25T08:06:02;93643.16;;;3.88;100.00
9738;BME280;4908;47.446;13.900;2024-01-25T08:08:30;93642.81;;;3.98;100.00
9738;BME280;4908;47.446;13.900;2024-01-25T08:10:57;93661.34;;;3.98;100.00
9738;BME280;4908;47.446;13.900;2024-01-25T08:13:25;93655.47;;;3.84;100.00
9738;BME280;4908;47.446;13.900;2024-01-25T08:15:53;93653.31;;;3.78;100.00
9738;BME280;4908;47.446;13.900;2024-01-25T08:18:20;93653.75;;;3.88;100.00
9738;BME280;4908;47.446;13.900;2024-01-25T08:20:48;93640.19;;;3.81;100.00
9738;BME280;4908;47.446;13.900;2024-01-25T08:23:16;93631.00;;;3.87;100.00
9738;BME280;4908;47.446;13.900;2024-01-25T08:25:45;93630.44;;;4.02;100.00
9738;BME280;4908;47.446;13.900;2024-01-25T08:28:12;93637.53;;;4.27;100.00
9738;BME280;4908;47.446;13.900;2024-01-25T08:30:39;93658.44;;;4.49;100.00
9738;BME280;4908;47.446;13.900;2024-01-25T08:33:06;93667.22;;;4.41;100.00
9738;BME280;4908;47.446;13.900;2024-01-25T08:35:33;93673.78;;;4.35;100.00
9738;BME280;4908;47.446;13.900;2024-01-25T08:38:00;93694.09;;;4.31;100.00
9738;BME280;4908;47.446;13.900;2024-01-25T08:40:29;93703.00;;;4.27;100.00
9738;BME280;4908;47.446;13.900;2024-01-25T08:42:57;93714.09;;;4.20;100.00
9738;BME280;4908;47.446;13.900;2024-01-25T08:45:24;93709.50;;;4.38;100.00
9738;BME280;4908;47.446;13.900;2024-01-25T08:47:51;93693.59;;;4.38;100.00
9738;BME280;4908;47.446;13.900;2024-01-25T08:50:18;93693.19;;;4.27;100.00
9738;BME280;4908;47.446;13.900;2024-01-25T08:52:45;93689.75;;;4.27;100.00
9738;BME280;4908;47.446;13.900;2024-01-25T08:55:13;93708.25;;;4.35;100.00
9738;BME280;4908;47.446;13.900;2024-01-25T08:57:40;93683.47;;;4.61;100.00
9738;BME280;4908;47.446;13.900;2024-01-25T09:00:10;93717.88;;;4.78;100.00
9738;BME280;4908;47.446;13.900;2024-01-25T09:02:37;93716.84;;;4.41;100.00
9738;BME280;4908;47.446;13.900;2024-01-25T09:05:05;93715.22;;;4.19;100.00
9738;BME280;4908;47.446;13.900;2024-01-25T09:07:32;93724.25;;;4.18;100.00
9738;BME280;4908;47.446;13.900;2024-01-25T09:09:59;93722.50;;;4.22;100.00
9738;BME280;4908;47.446;13.900;2024-01-25T09:12:26;93742.13;;;4.30;100.00
9738;BME280;4908;47.446;13.900;2024-01-25T09:14:53;93736.22;;;4.24;100.00
9738;BME280;4908;47.446;13.900;2024-01-25T09:17:22;93753.91;;;4.12;100.00
9738;BME280;4908;47.446;13.900;2024-01-25T09:19:49;93740.19;;;4.10;100.00
9738;BME280;4908;47.446;13.900;2024-01-25T09:22:16;93749.66;;;4.19;100.00
9738;BME280;4908;47.446;13.900;2024-01-25T09:24:45;93753.41;;;4.18;100.00
9738;BME280;4908;47.446;13.900;2024-01-25T09:27:12;93754.38;;;4.05;100.00
9738;BME280;4908;47.446;13.900;2024-01-25T09:29:39;93762.00;;;4.15;100.00
9738;BME280;4908;47.446;13.900;2024-01-25T09:32:06;93771.88;;;4.44;100.00
9738;BME280;4908;47.446;13.900;2024-01-25T09:34:36;93767.16;;;4.49;100.00
9738;BME280;4908;47.446;13.900;2024-01-25T09:37:03;93783.06;;;4.49;100.00
9738;BME280;4908;47.446;13.900;2024-01-25T09:39:31;93772.78;;;4.48;100.00
9738;BME280;4908;47.446;13.900;2024-01-25T09:41:58;93788.28;;;4.75;100.00
9738;BME280;4908;47.446;13.900;2024-01-25T09:44:25;93790.25;;;4.87;100.00
9738;BME280;4908;47.446;13.900;2024-01-25T09:46:53;93796.97;;;4.84;100.00
9738;BME280;4908;47.446;13.900;2024-01-25T09:49:20;93789.13;;;4.88;100.00
9738;BME280;4908;47.446;13.900;2024-01-25T09:51:51;93776.66;;;4.88;100.00
9738;BME280;4908;47.446;13.900;2024-01-25T09:54:18;93780.41;;;4.87;100.00
9738;BME280;4908;47.446;13.900;2024-01-25T09:56:46;93794.28;;;4.93;100.00
9738;BME280;4908;47.446;13.900;2024-01-25T09:59:16;93801.66;;;4.87;100.00
9738;BME280;4908;47.446;13.900;2024-01-25T10:01:44;93805.94;;;5.00;100.00
9738;BME280;4908;47.446;13.900;2024-01-25T10:04:11;93792.25;;;4.90;100.00
9738;BME280;4908;47.446;13.900;2024-01-25T10:06:38;93800.03;;;4.95;100.00
9738;BME280;4908;47.446;13.900;2024-01-25T10:09:07;93801.06;;;5.11;100.00
9738;BME280;4908;47.446;13.900;2024-01-25T10:11:35;93788.25;;;5.13;100.00
9738;BME280;4908;47.446;13.900;2024-01-25T10:14:03;93810.09;;;5.10;100.00
9738;BME280;4908;47.446;13.900;2024-01-25T10:16:30;93794.63;;;5.12;100.00
9738;BME280;4908;47.446;13.900;2024-01-25T10:18:57;93794.84;;;5.07;100.00
9738;BME280;4908;47.446;13.900;2024-01-25T10:21:24;93779.81;;;5.11;100.00
9738;BME280;4908;47.446;13.900;2024-01-25T10:23:52;93799.56;;;5.22;100.00
9738;BME280;4908;47.446;13.900;2024-01-25T10:26:21;93800.28;;;5.10;100.00
9738;BME280;4908;47.446;13.900;2024-01-25T10:28:52;93796.13;;;5.01;100.00
9738;BME280;4908;47.446;13.900;2024-01-25T10:31:22;93790.16;;;5.04;100.00
9738;BME280;4908;47.446;13.900;2024-01-25T10:33:51;93785.44;;;5.09;100.00
9738;BME280;4908;47.446;13.900;2024-01-25T10:36:20;93774.56;;;5.23;100.00
9738;BME280;4908;47.446;13.900;2024-01-25T10:38:48;93774.19;;;5.33;100.00
9738;BME280;4908;47.446;13.900;2024-01-25T10:41:16;93779.69;;;5.48;100.00
9738;BME280;4908;47.446;13.900;2024-01-25T10:43:45;93778.03;;;5.65;100.00
9738;BME280;4908;47.446;13.900;2024-01-25T10:46:12;93782.88;;;5.63;100.00
9738;BME280;4908;47.446;13.900;2024-01-25T10:48:39;93766.81;;;5.59;100.00
9738;BME280;4908;47.446;13.900;2024-01-25T10:51:07;93770.38;;;5.63;100.00
9738;BME280;4908;47.446;13.900;2024-01-25T10:53:36;93752.22;;;5.65;100.00
9738;BME280;4908;47.446;13.900;2024-01-25T10:56:04;93789.28;;;5.82;100.00
9738;BME280;4908;47.446;13.900;2024-01-25T10:58:32;93768.66;;;5.79;100.00
9738;BME280;4908;47.446;13.900;2024-01-25T11:01:02;93777.94;;;5.73;100.00
9738;BME280;4908;47.446;13.900;2024-01-25T11:03:30;93781.47;;;5.65;100.00
9738;BME280;4908;47.446;13.900;2024-01-25T11:06:06;93773.63;;;5.69;100.00
9738;BME280;4908;47.446;13.900;2024-01-25T11:08:34;93780.34;;;5.87;100.00
9738;BME280;4908;47.446;13.900;2024-01-25T11:11:05;93796.00;;;5.88;100.00
9738;BME280;4908;47.446;13.900;2024-01-25T11:13:33;93780.34;;;5.87;100.00
9738;BME280;4908;47.446;13.900;2024-01-25T11:16:12;93780.69;;;5.85;100.00
9738;BME280;4908;47.446;13.900;2024-01-25T11:18:50;93780.03;;;5.88;100.00
9738;BME280;4908;47.446;13.900;2024-01-25T11:21:25;93783.16;;;6.02;100.00
9738;BME280;4908;47.446;13.900;2024-01-25T11:24:00;93805.59;;;6.13;100.00
9738;BME280;4908;47.446;13.900;2024-01-25T11:26:28;93793.09;;;6.26;100.00
9738;BME280;4908;47.446;13.900;2024-01-25T11:28:55;93786.59;;;6.35;100.00
9738;BME280;4908;47.446;13.900;2024-01-25T11:31:27;93798.69;;;6.45;100.00
9738;BME280;4908;47.446;13.900;2024-01-25T11:33:57;93794.63;;;6.60;100.00
9738;BME280;4908;47.446;13.900;2024-01-25T11:36:25;93799.75;;;6.77;100.00
9738;BME280;4908;47.446;13.900;2024-01-25T11:38:52;93801.50;;;6.73;100.00
9738;BME280;4908;47.446;13.900;2024-01-25T11:41:19;93795.75;;;6.83;100.00
9738;BME280;4908;47.446;13.900;2024-01-25T11:43:48;93786.69;;;6.84;100.00
9738;BME280;4908;47.446;13.900;2024-01-25T11:46:15;93782.00;;;7.05;100.00
9738;BME280;4908;47.446;13.900;2024-01-25T11:48:45;93779.34;;;7.05;100.00
9738;BME280;4908;47.446;13.900;2024-01-25T11:51:12;93781.88;;;7.01;100.00
9738;BME280;4908;47.446;13.900;2024-01-25T11:53:40;93786.66;;;7.08;100.00
9738;BME280;4908;47.446;13.900;2024-01-25T11:56:08;93774.56;;;7.10;100.00
9738;BME280;4908;47.446;13.900;2024-01-25T11:58:37;93782.66;;;7.26;100.00
9738;BME280;4908;47.446;13.900;2024-01-25T12:01:05;93782.84;;;7.45;100.00
9738;BME280;4908;47.446;13.900;2024-01-25T12:03:34;93779.84;;;7.86;100.00
9738;BME280;4908;47.446;13.900;2024-01-25T12:06:04;93772.78;;;8.49;100.00
9738;BME280;4908;47.446;13.900;2024-01-25T12:08:32;93781.03;;;8.29;100.00
9738;BME280;4908;47.446;13.900;2024-01-25T12:11:03;93775.22;;;8.70;100.00
9738;BME280;4908;47.446;13.900;2024-01-25T12:13:34;93784.47;;;9.73;100.00
9738;BME280;4908;47.446;13.900;2024-01-25T12:16:02;93781.28;;;10.86;74.15
9738;BME280;4908;47.446;13.900;2024-01-25T12:18:30;93772.34;;;11.01;70.15
9738;BME280;4908;47.446;13.900;2024-01-25T12:20:59;93757.72;;;11.47;69.32
9738;BME280;4908;47.446;13.900;2024-01-25T12:23:34;93780.94;;;11.36;71.60
9738;BME280;4908;47.446;13.900;2024-01-25T12:26:02;93763.31;;;11.64;72.50
9738;BME280;4908;47.446;13.900;2024-01-25T12:28:31;93759.63;;;11.73;65.95
9738;BME280;4908;47.446;13.900;2024-01-25T12:30:59;93774.47;;;10.46;80.67
9738;BME280;4908;47.446;13.900;2024-01-25T12:33:26;93773.06;;;9.76;95.57
9738;BME280;4908;47.446;13.900;2024-01-25T12:35:53;93757.88;;;11.05;80.38
9738;BME280;4908;47.446;13.900;2024-01-25T12:38:21;93754.31;;;12.06;67.38
9738;BME280;4908;47.446;13.900;2024-01-25T12:40:50;93747.78;;;12.07;63.75
9738;BME280;4908;47.446;13.900;2024-01-25T12:43:17;93757.03;;;13.26;57.65
9738;BME280;4908;47.446;13.900;2024-01-25T12:45:44;93731.03;;;12.53;59.40
9738;BME280;4908;47.446;13.900;2024-01-25T12:48:12;93744.31;;;13.20;55.54
9738;BME280;4908;47.446;13.900;2024-01-25T12:50:39;93740.09;;;13.22;54.62
9738;BME280;4908;47.446;13.900;2024-01-25T12:53:06;93742.22;;;13.03;55.89
9738;BME280;4908;47.446;13.900;2024-01-25T12:55:33;93731.22;;;13.18;53.57
9738;BME280;4908;47.446;13.900;2024-01-25T12:58:02;93736.34;;;12.90;54.84
9738;BME280;4908;47.446;13.900;2024-01-25T13:00:30;93731.28;;;13.25;53.36
9738;BME280;4908;47.446;13.900;2024-01-25T13:02:57;93750.81;;;12.75;56.11
9738;BME280;4908;47.446;13.900;2024-01-25T13:05:24;93751.00;;;12.96;54.29
9738;BME280;4908;47.446;13.900;2024-01-25T13:07:51;93767.06;;;12.89;55.11
9738;BME280;4908;47.446;13.900;2024-01-25T13:10:18;93748.53;;;12.77;54.45
9738;BME280;4908;47.446;13.900;2024-01-25T13:12:45;93753.81;;;11.97;58.18
9738;BME280;4908;47.446;13.900;2024-01-25T13:15:14;93754.34;;;12.09;59.55